createdAt,value
2022-08-07T00:00:06.741Z,53
2022-08-07T00:00:35.898Z,53
2022-08-07T00:00:54.849Z,53
2022-08-07T00:01:44.470Z,53
2022-08-07T00:02:48.370Z,53
2022-08-07T00:03:18.374Z,53
2022-08-07T00:03:50.892Z,53
2022-08-07T00:04:24.789Z,53
2022-08-07T00:04:41.192Z,53
2022-08-07T00:05:11.259Z,53
2022-08-07T00:05:36.250Z,53
2022-08-07T00:05:58.459Z,53
2022-08-07T00:06:33.369Z,53
2022-08-07T00:07:05.282Z,53
2022-08-07T00:07:40.437Z,53
2022-08-07T00:08:07.782Z,53
2022-08-07T00:08:34.882Z,53
2022-08-07T00:08:54.906Z,53
2022-08-07T00:09:35.544Z,53
2022-08-07T00:10:31.382Z,54
2022-08-07T00:11:02.418Z,53
2022-08-07T00:11:35.230Z,53
2022-08-07T00:12:06.367Z,54
2022-08-07T00:12:34.908Z,54
2022-08-07T00:12:59.866Z,53
2022-08-07T00:13:26.987Z,53
2022-08-07T00:13:59.511Z,54
2022-08-07T00:14:31.642Z,53
2022-08-07T00:15:02.901Z,53
2022-08-07T00:15:36.195Z,54
2022-08-07T00:16:06.389Z,54
2022-08-07T00:16:34.779Z,54
2022-08-07T00:16:54.918Z,54
2022-08-07T00:17:26.859Z,54
2022-08-07T00:17:59.397Z,54
2022-08-07T00:18:30.426Z,54
2022-08-07T00:19:02.403Z,54
2022-08-07T00:20:00.902Z,54
2022-08-07T00:20:06.845Z,54
2022-08-07T00:20:35.584Z,54
2022-08-07T00:20:54.824Z,54
2022-08-07T00:21:56.057Z,54
2022-08-07T00:22:30.796Z,54
2022-08-07T00:22:51.556Z,54
2022-08-07T00:23:18.336Z,54
2022-08-07T00:23:50.426Z,54
2022-08-07T00:24:22.558Z,54
2022-08-07T00:24:40.738Z,54
2022-08-07T00:25:16.437Z,54
2022-08-07T00:25:37.468Z,54
2022-08-07T00:26:02.837Z,54
2022-08-07T00:26:59.335Z,54
2022-08-07T00:27:18.491Z,54
2022-08-07T00:27:52.341Z,54
2022-08-07T00:28:22.802Z,54
2022-08-07T00:28:45.627Z,54
2022-08-07T00:29:16.953Z,54
2022-08-07T00:29:37.046Z,54
2022-08-07T00:29:58.723Z,54
2022-08-07T00:30:31.409Z,54
2022-08-07T00:31:05.830Z,54
2022-08-07T00:31:37.434Z,54
2022-08-07T00:32:06.845Z,54
2022-08-07T00:32:35.031Z,54
2022-08-07T00:32:54.898Z,54
2022-08-07T00:33:27.353Z,54
2022-08-07T00:33:58.411Z,54
2022-08-07T00:34:30.505Z,54
2022-08-07T00:35:02.962Z,54
2022-08-07T00:35:35.209Z,54
2022-08-07T00:36:06.367Z,54
2022-08-07T00:36:34.833Z,54
2022-08-07T00:36:54.813Z,54
2022-08-07T00:37:29.407Z,54
2022-08-07T00:37:58.434Z,54
2022-08-07T00:38:31.225Z,54
2022-08-07T00:39:02.683Z,54
2022-08-07T00:39:34.808Z,54
2022-08-07T00:40:12.441Z,54
2022-08-07T00:40:36.249Z,54
2022-08-07T00:40:54.696Z,54
2022-08-07T00:41:26.796Z,54
2022-08-07T00:42:02.133Z,54
2022-08-07T00:42:30.570Z,54
2022-08-07T00:43:02.392Z,54
2022-08-07T00:44:01.959Z,54
2022-08-07T00:44:06.349Z,54
2022-08-07T00:44:34.824Z,54
2022-08-07T00:44:54.802Z,54
2022-08-07T00:45:26.550Z,54
2022-08-07T00:45:59.420Z,54
2022-08-07T00:46:32.824Z,55
2022-08-07T00:47:02.588Z,54
2022-08-07T00:48:08.351Z,54
2022-08-07T00:48:24.923Z,54
2022-08-07T00:48:42.353Z,54
2022-08-07T00:49:10.462Z,54
2022-08-07T00:50:20.891Z,54
2022-08-07T00:51:02.508Z,55
2022-08-07T00:51:56.447Z,55
2022-08-07T00:52:06.381Z,55
2022-08-07T00:52:35.072Z,55
2022-08-07T00:52:54.908Z,55
2022-08-07T00:53:26.396Z,55
2022-08-07T00:53:58.384Z,55
2022-08-07T00:54:30.506Z,55
2022-08-07T00:55:04.600Z,55
2022-08-07T00:56:02.290Z,55
2022-08-07T00:56:13.688Z,55
2022-08-07T00:56:35.938Z,55
2022-08-07T00:56:54.669Z,55
2022-08-07T00:57:26.457Z,55
2022-08-07T00:57:58.313Z,55
2022-08-07T00:58:31.414Z,55
2022-08-07T00:59:02.449Z,55
2022-08-07T00:59:35.793Z,55
2022-08-07T01:00:07.047Z,55
2022-08-07T01:00:34.780Z,55
2022-08-07T01:00:54.695Z,55
2022-08-07T01:01:26.493Z,55
2022-08-07T01:01:59.303Z,55
2022-08-07T01:02:30.467Z,55
2022-08-07T01:03:02.513Z,55
2022-08-07T01:03:56.734Z,55
2022-08-07T01:04:07.401Z,55
2022-08-07T01:04:40.235Z,55
2022-08-07T01:04:54.678Z,55
2022-08-07T01:05:27.069Z,55
2022-08-07T01:05:58.725Z,55
2022-08-07T01:06:30.491Z,55
2022-08-07T01:07:03.326Z,55
2022-08-07T01:07:37.069Z,55
2022-08-07T01:08:06.369Z,55
2022-08-07T01:08:34.863Z,55
2022-08-07T01:08:56.238Z,55
2022-08-07T01:10:03.837Z,56
2022-08-07T01:10:14.780Z,55
2022-08-07T01:10:34.893Z,55
2022-08-07T01:12:04.834Z,55
2022-08-07T01:12:34.903Z,56
2022-08-07T01:12:54.869Z,55
2022-08-07T01:13:26.476Z,55
2022-08-07T01:13:58.363Z,55
2022-08-07T01:14:30.417Z,55
2022-08-07T01:15:03.853Z,55
2022-08-07T01:16:01.103Z,55
2022-08-07T01:16:29.939Z,55
2022-08-07T01:16:39.558Z,56
2022-08-07T01:17:10.345Z,56
2022-08-07T01:17:35.008Z,56
2022-08-07T01:17:59.325Z,56
2022-08-07T01:18:30.412Z,55
2022-08-07T01:19:02.349Z,55
2022-08-07T01:19:38.542Z,55
2022-08-07T01:20:06.613Z,55
2022-08-07T01:20:35.533Z,55
2022-08-07T01:20:59.322Z,56
2022-08-07T01:21:26.974Z,56
2022-08-07T01:21:58.359Z,56
2022-08-07T01:22:30.459Z,56
2022-08-07T01:23:12.259Z,56
2022-08-07T01:23:38.500Z,56
2022-08-07T01:24:06.273Z,56
2022-08-07T01:24:35.388Z,55
2022-08-07T01:24:55.562Z,56
2022-08-07T01:25:53.974Z,56
2022-08-07T01:25:59.918Z,55
2022-08-07T01:26:30.482Z,55
2022-08-07T01:27:02.642Z,55
2022-08-07T01:27:36.757Z,55
2022-08-07T01:28:06.334Z,55
2022-08-07T01:28:37.075Z,55
2022-08-07T01:28:54.591Z,56
2022-08-07T01:29:28.007Z,56
2022-08-07T01:29:59.165Z,55
2022-08-07T01:30:30.527Z,55
2022-08-07T01:31:03.205Z,55
2022-08-07T01:31:42.452Z,55
2022-08-07T01:32:12.518Z,55
2022-08-07T01:32:34.792Z,55
2022-08-07T01:32:54.651Z,55
2022-08-07T01:33:55.017Z,55
2022-08-07T01:34:14.682Z,55
2022-08-07T01:34:34.783Z,55
2022-08-07T01:35:02.388Z,55
2022-08-07T01:35:52.788Z,55
2022-08-07T01:36:07.581Z,55
2022-08-07T01:36:36.425Z,55
2022-08-07T01:36:58.325Z,55
2022-08-07T01:37:26.791Z,55
2022-08-07T01:37:58.422Z,55
2022-08-07T01:38:30.315Z,55
2022-08-07T01:39:09.435Z,55
2022-08-07T01:39:41.351Z,55
2022-08-07T01:40:06.799Z,55
2022-08-07T01:40:34.881Z,55
2022-08-07T01:40:54.583Z,55
2022-08-07T01:41:27.029Z,55
2022-08-07T01:42:36.742Z,55
2022-08-07T01:42:57.593Z,55
2022-08-07T01:43:18.305Z,55
2022-08-07T01:43:50.378Z,55
2022-08-07T01:44:22.436Z,55
2022-08-07T01:44:40.175Z,55
2022-08-07T01:45:18.100Z,55
2022-08-07T01:45:37.394Z,55
2022-08-07T01:45:58.704Z,56
2022-08-07T01:46:31.282Z,56
2022-08-07T01:48:16.945Z,56
2022-08-07T01:48:40.938Z,56
2022-08-07T01:48:55.079Z,56
2022-08-07T01:49:26.529Z,56
2022-08-07T01:49:59.192Z,56
2022-08-07T01:50:30.391Z,56
2022-08-07T01:51:24.747Z,56
2022-08-07T01:52:22.377Z,56
2022-08-07T01:52:39.447Z,56
2022-08-07T01:53:10.396Z,56
2022-08-07T01:54:08.482Z,56
2022-08-07T01:54:33.074Z,56
2022-08-07T01:54:46.343Z,56
2022-08-07T01:55:21.992Z,56
2022-08-07T01:55:51.216Z,56
2022-08-07T01:56:22.863Z,56
2022-08-07T01:56:40.657Z,56
2022-08-07T01:57:24.263Z,56
2022-08-07T01:58:05.616Z,56
2022-08-07T01:58:27.755Z,56
2022-08-07T01:58:37.513Z,56
2022-08-07T01:59:02.372Z,56
2022-08-07T01:59:34.551Z,56
2022-08-07T02:00:13.051Z,56
2022-08-07T02:00:35.953Z,56
2022-08-07T02:01:09.437Z,56
2022-08-07T02:02:02.701Z,56
2022-08-07T02:02:33.001Z,56
2022-08-07T02:03:22.031Z,56
2022-08-07T02:03:51.289Z,56
2022-08-07T02:04:22.395Z,56
2022-08-07T02:04:40.361Z,56
2022-08-07T02:05:16.170Z,56
2022-08-07T02:06:00.822Z,56
2022-08-07T02:06:32.536Z,56
2022-08-07T02:07:02.374Z,56
2022-08-07T02:07:44.780Z,56
2022-08-07T02:08:06.254Z,56
2022-08-07T02:08:34.806Z,56
2022-08-07T02:08:54.649Z,56
2022-08-07T02:09:51.691Z,56
2022-08-07T02:09:58.740Z,56
2022-08-07T02:10:30.360Z,56
2022-08-07T02:11:03.272Z,56
2022-08-07T02:12:04.139Z,56
2022-08-07T02:12:31.031Z,56
2022-08-07T02:12:39.508Z,56
2022-08-07T02:13:11.574Z,56
2022-08-07T02:13:59.724Z,56
2022-08-07T02:14:35.913Z,56
2022-08-07T02:14:46.237Z,56
2022-08-07T02:15:18.381Z,56
2022-08-07T02:15:50.387Z,56
2022-08-07T02:16:28.840Z,56
2022-08-07T02:16:40.198Z,56
2022-08-07T02:17:10.863Z,56
2022-08-07T02:17:35.146Z,56
2022-08-07T02:17:58.274Z,56
2022-08-07T02:18:30.374Z,56
2022-08-07T02:19:02.314Z,56
2022-08-07T02:20:05.006Z,56
2022-08-07T02:20:23.754Z,56
2022-08-07T02:20:40.297Z,56
2022-08-07T02:21:13.785Z,56
2022-08-07T02:21:55.209Z,56
2022-08-07T02:22:14.573Z,56
2022-08-07T02:22:34.752Z,56
2022-08-07T02:23:02.334Z,56
2022-08-07T02:23:35.935Z,56
2022-08-07T02:24:06.270Z,56
2022-08-07T02:24:35.913Z,56
2022-08-07T02:24:54.546Z,56
2022-08-07T02:25:47.239Z,56
2022-08-07T02:26:34.264Z,56
2022-08-07T02:27:03.407Z,56
2022-08-07T02:27:35.059Z,56
2022-08-07T02:28:07.017Z,56
2022-08-07T02:28:35.130Z,56
2022-08-07T02:28:54.643Z,56
2022-08-07T02:29:26.451Z,56
2022-08-07T02:29:58.387Z,56
2022-08-07T02:30:30.456Z,56
2022-08-07T02:31:19.008Z,56
2022-08-07T02:31:34.506Z,56
2022-08-07T02:32:17.338Z,56
2022-08-07T02:32:59.994Z,56
2022-08-07T02:33:11.562Z,56
2022-08-07T02:34:01.729Z,56
2022-08-07T02:34:17.286Z,56
2022-08-07T02:34:48.921Z,56
2022-08-07T02:35:02.339Z,56
2022-08-07T02:36:28.520Z,56
2022-08-07T02:36:38.301Z,56
2022-08-07T02:37:10.337Z,56
2022-08-07T02:37:36.257Z,56
2022-08-07T02:37:58.271Z,56
2022-08-07T02:38:31.540Z,56
2022-08-07T02:39:09.475Z,56
2022-08-07T02:39:43.246Z,56
2022-08-07T02:40:29.608Z,56
2022-08-07T02:40:36.877Z,56
2022-08-07T02:40:56.140Z,56
2022-08-07T02:41:33.622Z,56
2022-08-07T02:41:59.204Z,56
2022-08-07T02:42:30.371Z,56
2022-08-07T02:43:02.438Z,56
2022-08-07T02:43:36.085Z,56
2022-08-07T02:44:06.269Z,56
2022-08-07T02:44:36.521Z,56
2022-08-07T02:44:54.663Z,56
2022-08-07T02:45:57.449Z,56
2022-08-07T02:46:14.459Z,56
2022-08-07T02:46:34.827Z,56
2022-08-07T02:47:02.365Z,55
2022-08-07T02:47:45.273Z,55
2022-08-07T02:48:10.027Z,55
2022-08-07T02:48:35.394Z,55
2022-08-07T02:48:55.412Z,56
2022-08-07T02:49:56.376Z,56
2022-08-07T02:50:14.616Z,56
2022-08-07T02:50:34.853Z,56
2022-08-07T02:51:02.289Z,56
2022-08-07T02:51:42.366Z,56
2022-08-07T02:52:06.259Z,56
2022-08-07T02:52:36.903Z,56
2022-08-07T02:52:54.443Z,56
2022-08-07T02:53:27.307Z,56
2022-08-07T02:54:00.468Z,56
2022-08-07T02:54:30.324Z,56
2022-08-07T02:55:02.312Z,56
2022-08-07T02:56:02.040Z,56
2022-08-07T02:56:22.589Z,56
2022-08-07T02:56:40.617Z,56
2022-08-07T02:57:10.243Z,56
2022-08-07T02:57:35.301Z,56
2022-08-07T02:57:59.825Z,56
2022-08-07T02:58:33.342Z,56
2022-08-07T02:59:02.976Z,56
2022-08-07T02:59:34.469Z,56
2022-08-07T03:00:10.981Z,56
2022-08-07T03:00:34.857Z,56
2022-08-07T03:00:54.524Z,56
2022-08-07T03:01:35.398Z,56
2022-08-07T03:02:01.161Z,56
2022-08-07T03:02:31.393Z,56
2022-08-07T03:03:05.903Z,56
2022-08-07T03:03:50.172Z,56
2022-08-07T03:04:12.341Z,56
2022-08-07T03:04:35.353Z,56
2022-08-07T03:04:54.436Z,56
2022-08-07T03:05:29.093Z,56
2022-08-07T03:05:59.136Z,56
2022-08-07T03:06:34.545Z,56
2022-08-07T03:07:03.439Z,56
2022-08-07T03:07:43.091Z,56
2022-08-07T03:08:26.977Z,56
2022-08-07T03:08:43.118Z,56
2022-08-07T03:09:11.326Z,56
2022-08-07T03:09:43.398Z,56
2022-08-07T03:09:58.228Z,56
2022-08-07T03:10:30.244Z,56
2022-08-07T03:11:02.325Z,56
2022-08-07T03:11:38.999Z,56
2022-08-07T03:12:06.696Z,56
2022-08-07T03:12:35.797Z,56
2022-08-07T03:12:54.464Z,57
2022-08-07T03:13:26.266Z,57
2022-08-07T03:14:01.873Z,57
2022-08-07T03:14:31.228Z,57
2022-08-07T03:15:07.619Z,57
2022-08-07T03:15:47.730Z,56
2022-08-07T03:16:06.209Z,57
2022-08-07T03:16:34.777Z,57
2022-08-07T03:16:54.382Z,57
2022-08-07T03:17:26.523Z,57
2022-08-07T03:17:58.826Z,57
2022-08-07T03:18:34.797Z,57
2022-08-07T03:19:02.372Z,57
2022-08-07T03:19:36.917Z,57
2022-08-07T03:20:07.588Z,57
2022-08-07T03:20:37.096Z,57
2022-08-07T03:20:54.309Z,57
2022-08-07T03:21:26.281Z,56
2022-08-07T03:21:58.610Z,56
2022-08-07T03:22:30.706Z,56
2022-08-07T03:23:02.271Z,56
2022-08-07T03:24:18.028Z,56
2022-08-07T03:24:34.664Z,56
2022-08-07T03:24:54.376Z,56
2022-08-07T03:25:26.244Z,56
2022-08-07T03:25:59.873Z,56
2022-08-07T03:26:30.339Z,56
2022-08-07T03:27:02.997Z,56
2022-08-07T03:27:59.745Z,56
2022-08-07T03:28:54.428Z,56
2022-08-07T03:29:27.874Z,57
2022-08-07T03:29:58.261Z,57
2022-08-07T03:30:30.410Z,57
2022-08-07T03:31:02.303Z,57
2022-08-07T03:31:43.545Z,56
2022-08-07T03:32:06.300Z,57
2022-08-07T03:32:36.849Z,57
2022-08-07T03:32:58.548Z,57
2022-08-07T03:33:26.350Z,57
2022-08-07T03:33:58.264Z,57
2022-08-07T03:34:30.934Z,57
2022-08-07T03:35:17.461Z,57
2022-08-07T03:35:37.925Z,57
2022-08-07T03:36:06.223Z,57
2022-08-07T03:36:35.842Z,57
2022-08-07T03:36:54.364Z,57
2022-08-07T03:37:27.648Z,57
2022-08-07T03:37:58.262Z,57
2022-08-07T03:38:33.286Z,57
2022-08-07T03:39:02.387Z,57
2022-08-07T03:39:59.025Z,57
2022-08-07T03:40:15.600Z,57
2022-08-07T03:40:36.591Z,58
2022-08-07T03:40:54.417Z,57
2022-08-07T03:41:42.486Z,57
2022-08-07T03:41:58.212Z,57
2022-08-07T03:42:30.374Z,57
2022-08-07T03:43:02.274Z,57
2022-08-07T03:43:36.097Z,57
2022-08-07T03:44:06.170Z,58
2022-08-07T03:44:34.839Z,57
2022-08-07T03:44:58.098Z,57
2022-08-07T03:45:30.959Z,57
2022-08-07T03:45:58.249Z,57
2022-08-07T03:46:31.084Z,57
2022-08-07T03:47:13.966Z,58
2022-08-07T03:47:47.593Z,57
2022-08-07T03:48:10.009Z,57
2022-08-07T03:48:45.290Z,57
2022-08-07T03:49:10.272Z,58
2022-08-07T03:49:35.499Z,58
2022-08-07T03:49:58.852Z,58
2022-08-07T03:50:30.326Z,58
2022-08-07T03:51:02.335Z,58
2022-08-07T03:51:47.825Z,58
2022-08-07T03:52:07.131Z,58
2022-08-07T03:52:35.528Z,58
2022-08-07T03:52:56.243Z,58
2022-08-07T03:54:00.753Z,58
2022-08-07T03:54:55.199Z,58
2022-08-07T03:55:18.165Z,58
2022-08-07T03:55:58.172Z,58
2022-08-07T03:56:33.635Z,58
2022-08-07T03:56:39.345Z,58
2022-08-07T03:57:10.278Z,58
2022-08-07T03:59:09.338Z,58
2022-08-07T03:59:19.418Z,59
2022-08-07T04:00:01.791Z,59
2022-08-07T04:00:30.434Z,59
2022-08-07T04:00:46.215Z,58
2022-08-07T04:01:11.022Z,58
2022-08-07T04:01:36.913Z,58
2022-08-07T04:01:59.198Z,58
2022-08-07T04:02:30.390Z,58
2022-08-07T04:03:03.651Z,58
2022-08-07T04:03:49.741Z,58
2022-08-07T04:04:06.358Z,58
2022-08-07T04:04:37.057Z,58
2022-08-07T04:04:54.558Z,58
2022-08-07T04:05:39.439Z,58
2022-08-07T04:05:58.816Z,58
2022-08-07T04:06:36.200Z,58
2022-08-07T04:07:02.437Z,58
2022-08-07T04:07:41.749Z,58
2022-08-07T04:08:06.497Z,58
2022-08-07T04:08:35.183Z,58
2022-08-07T04:08:54.676Z,59
2022-08-07T04:09:29.508Z,59
2022-08-07T04:09:58.601Z,59
2022-08-07T04:10:30.506Z,59
2022-08-07T04:12:24.889Z,59
2022-08-07T04:12:35.408Z,59
2022-08-07T04:12:54.607Z,59
2022-08-07T04:13:27.765Z,59
2022-08-07T04:14:10.528Z,59
2022-08-07T04:14:47.719Z,59
2022-08-07T04:15:20.011Z,59
2022-08-07T04:15:50.398Z,59
2022-08-07T04:16:30.819Z,59
2022-08-07T04:16:40.361Z,59
2022-08-07T04:17:20.008Z,59
2022-08-07T04:18:31.128Z,59
2022-08-07T04:19:04.399Z,59
2022-08-07T04:19:52.441Z,59
2022-08-07T04:20:06.645Z,59
2022-08-07T04:20:35.437Z,59
2022-08-07T04:20:56.498Z,59
2022-08-07T04:21:26.409Z,59
2022-08-07T04:21:59.433Z,59
2022-08-07T04:22:30.498Z,59
2022-08-07T04:23:06.230Z,59
2022-08-07T04:23:43.741Z,59
2022-08-07T04:24:07.902Z,59
2022-08-07T04:24:39.244Z,59
2022-08-07T04:24:55.784Z,59
2022-08-07T04:25:29.139Z,59
2022-08-07T04:25:58.405Z,60
2022-08-07T04:26:30.429Z,60
2022-08-07T04:27:04.892Z,60
2022-08-07T04:27:35.604Z,60
2022-08-07T04:28:06.375Z,60
2022-08-07T04:28:35.006Z,60
2022-08-07T04:28:54.505Z,60
2022-08-07T04:29:26.594Z,60
2022-08-07T04:30:01.879Z,60
2022-08-07T04:30:43.970Z,60
2022-08-07T04:31:03.340Z,60
2022-08-07T04:32:02.125Z,60
2022-08-07T04:32:09.945Z,60
2022-08-07T04:32:35.256Z,60
2022-08-07T04:32:58.017Z,60
2022-08-07T04:33:28.137Z,60
2022-08-07T04:34:00.899Z,59
2022-08-07T04:34:33.385Z,59
2022-08-07T04:35:03.924Z,59
2022-08-07T04:35:35.513Z,59
2022-08-07T04:36:06.712Z,59
2022-08-07T04:36:36.495Z,59
2022-08-07T04:36:54.504Z,60
2022-08-07T04:37:26.429Z,60
2022-08-07T04:38:03.489Z,60
2022-08-07T04:38:31.807Z,60
2022-08-07T04:39:02.466Z,60
2022-08-07T04:39:35.969Z,60
2022-08-07T04:40:06.747Z,60
2022-08-07T04:40:35.754Z,60
2022-08-07T04:40:56.706Z,60
2022-08-07T04:41:26.450Z,60
2022-08-07T04:42:00.370Z,60
2022-08-07T04:42:30.657Z,60
2022-08-07T04:43:10.751Z,60
2022-08-07T04:44:10.430Z,60
2022-08-07T04:44:22.403Z,60
2022-08-07T04:44:54.639Z,60
2022-08-07T04:45:10.501Z,60
2022-08-07T04:46:00.295Z,60
2022-08-07T04:46:25.718Z,60
2022-08-07T04:46:39.968Z,60
2022-08-07T04:47:07.973Z,59
2022-08-07T04:47:58.796Z,59
2022-08-07T04:48:22.426Z,59
2022-08-07T04:48:44.663Z,59
2022-08-07T04:49:17.695Z,60
2022-08-07T04:49:37.661Z,60
2022-08-07T04:50:03.941Z,59
2022-08-07T04:50:30.476Z,60
2022-08-07T04:51:03.451Z,60
2022-08-07T04:51:34.375Z,60
2022-08-07T04:52:06.298Z,60
2022-08-07T04:52:34.996Z,60
2022-08-07T04:52:54.434Z,60
2022-08-07T04:54:01.124Z,60
2022-08-07T04:54:14.394Z,60
2022-08-07T04:54:35.758Z,60
2022-08-07T04:55:02.635Z,60
2022-08-07T04:58:16.888Z,60
2022-08-07T05:00:08.043Z,60
2022-08-07T05:00:30.961Z,60
2022-08-07T05:00:40.373Z,60
2022-08-07T05:01:13.489Z,60
2022-08-07T05:01:35.022Z,60
2022-08-07T05:01:59.569Z,60
2022-08-07T05:02:31.253Z,60
2022-08-07T05:03:02.361Z,60
2022-08-07T05:04:00.234Z,60
2022-08-07T05:04:22.455Z,60
2022-08-07T05:04:47.106Z,60
2022-08-07T05:05:11.912Z,60
2022-08-07T05:05:59.280Z,60
2022-08-07T05:06:43.645Z,60
2022-08-07T05:07:09.704Z,60
2022-08-07T05:07:37.049Z,60
2022-08-07T05:08:06.387Z,60
2022-08-07T05:09:00.126Z,60
2022-08-07T05:09:10.900Z,60
2022-08-07T05:09:46.355Z,60
2022-08-07T05:09:58.314Z,60
2022-08-07T05:10:30.474Z,60
2022-08-07T05:11:02.783Z,60
2022-08-07T05:11:58.589Z,60
2022-08-07T05:12:07.935Z,60
2022-08-07T05:12:35.639Z,60
2022-08-07T05:12:59.958Z,60
2022-08-07T05:14:54.375Z,59
2022-08-07T05:15:04.884Z,60
2022-08-07T05:15:35.776Z,60
2022-08-07T05:16:06.612Z,60
2022-08-07T05:16:34.993Z,59
2022-08-07T05:16:54.664Z,59
2022-08-07T05:17:52.969Z,60
2022-08-07T05:18:00.353Z,60
2022-08-07T05:18:30.519Z,60
2022-08-07T05:19:02.517Z,60
2022-08-07T05:19:44.158Z,60
2022-08-07T05:20:09.585Z,60
2022-08-07T05:20:35.824Z,60
2022-08-07T05:20:54.649Z,59
2022-08-07T05:22:00.064Z,59
2022-08-07T05:22:26.540Z,59
2022-08-07T05:22:37.129Z,59
2022-08-07T05:23:04.104Z,59
2022-08-07T05:23:35.759Z,59
2022-08-07T05:24:06.518Z,59
2022-08-07T05:24:39.703Z,59
2022-08-07T05:24:54.947Z,59
2022-08-07T05:26:10.329Z,59
2022-08-07T05:26:30.364Z,59
2022-08-07T05:27:02.762Z,59
2022-08-07T05:28:03.123Z,59
2022-08-07T05:28:26.704Z,59
2022-08-07T05:28:40.798Z,59
2022-08-07T05:29:10.392Z,59
2022-08-07T05:29:39.017Z,59
2022-08-07T05:29:58.698Z,59
2022-08-07T05:30:32.915Z,59
2022-08-07T05:31:03.672Z,59
2022-08-07T05:31:37.885Z,59
2022-08-07T05:32:06.296Z,59
2022-08-07T05:32:35.857Z,59
2022-08-07T05:32:54.299Z,59
2022-08-07T05:33:26.429Z,59
2022-08-07T05:34:04.474Z,59
2022-08-07T05:34:31.026Z,59
2022-08-07T05:35:04.147Z,58
2022-08-07T05:35:41.834Z,58
2022-08-07T05:36:06.358Z,59
2022-08-07T05:36:35.241Z,59
2022-08-07T05:36:54.275Z,58
2022-08-07T05:37:26.628Z,58
2022-08-07T05:37:42.956Z,59
2022-08-07T05:39:00.839Z,59
2022-08-07T05:40:13.468Z,58
2022-08-07T05:40:22.499Z,58
2022-08-07T05:40:42.803Z,58
2022-08-07T05:41:14.202Z,58
2022-08-07T05:42:00.152Z,58
2022-08-07T05:42:15.591Z,58
2022-08-07T05:42:56.044Z,58
2022-08-07T05:43:18.612Z,58
2022-08-07T05:44:12.359Z,58
2022-08-07T05:44:29.617Z,58
2022-08-07T05:44:41.575Z,58
2022-08-07T05:45:25.940Z,58
2022-08-07T05:45:58.290Z,58
2022-08-07T05:46:30.414Z,58
2022-08-07T05:47:18.263Z,58
2022-08-07T05:47:38.209Z,58
2022-08-07T05:48:06.636Z,58
2022-08-07T05:48:34.967Z,57
2022-08-07T05:48:58.220Z,58
2022-08-07T05:49:26.739Z,58
2022-08-07T05:49:58.318Z,57
2022-08-07T05:50:30.411Z,57
2022-08-07T05:51:03.402Z,58
2022-08-07T05:51:34.304Z,58
2022-08-07T05:52:06.260Z,58
2022-08-07T05:52:35.819Z,58
2022-08-07T05:52:54.302Z,58
2022-08-07T05:54:11.954Z,58
2022-08-07T05:54:44.278Z,57
2022-08-07T05:55:10.753Z,57
2022-08-07T05:56:03.495Z,57
2022-08-07T05:56:30.079Z,57
2022-08-07T05:56:41.383Z,57
2022-08-07T05:57:10.320Z,57
2022-08-07T05:57:38.114Z,57
2022-08-07T05:57:58.403Z,57
2022-08-07T05:58:36.853Z,57
2022-08-07T05:59:02.315Z,56
2022-08-07T05:59:38.973Z,56
2022-08-07T06:00:07.772Z,56
2022-08-07T06:00:35.211Z,56
2022-08-07T06:00:56.289Z,56
2022-08-07T06:01:26.547Z,56
2022-08-07T06:01:42.904Z,56
2022-08-07T06:02:16.794Z,57
2022-08-07T06:02:36.996Z,57
2022-08-07T06:03:03.221Z,58
2022-08-07T06:03:53.686Z,58
2022-08-07T06:04:06.394Z,58
2022-08-07T06:04:35.112Z,58
2022-08-07T06:04:55.493Z,58
2022-08-07T06:05:28.110Z,57
2022-08-07T06:05:49.002Z,57
2022-08-07T06:06:18.878Z,57
2022-08-07T06:06:34.948Z,57
2022-08-07T06:07:03.947Z,56
2022-08-07T06:08:14.885Z,55
2022-08-07T06:08:42.055Z,56
2022-08-07T06:08:55.851Z,55
2022-08-07T06:09:45.005Z,56
2022-08-07T06:10:15.472Z,55
2022-08-07T06:10:35.219Z,55
2022-08-07T06:11:03.792Z,55
2022-08-07T06:11:34.415Z,55
2022-08-07T06:12:06.555Z,55
2022-08-07T06:12:36.111Z,55
2022-08-07T06:12:54.413Z,54
2022-08-07T06:14:10.972Z,55
2022-08-07T06:14:30.479Z,55
2022-08-07T06:15:05.171Z,55
2022-08-07T06:15:39.158Z,54
2022-08-07T06:16:06.533Z,54
2022-08-07T06:16:35.197Z,54
2022-08-07T06:16:56.141Z,54
2022-08-07T06:17:30.589Z,54
2022-08-07T06:17:53.880Z,54
2022-08-07T06:18:14.581Z,54
2022-08-07T06:18:36.287Z,54
2022-08-07T06:19:02.729Z,54
2022-08-07T06:19:57.900Z,54
2022-08-07T06:20:12.450Z,55
2022-08-07T06:20:51.102Z,55
2022-08-07T06:22:33.336Z,54
2022-08-07T06:23:46.373Z,54
2022-08-07T06:24:58.318Z,53
2022-08-07T06:25:27.431Z,53
2022-08-07T06:25:58.538Z,53
2022-08-07T06:26:30.465Z,53
2022-08-07T06:27:03.566Z,53
2022-08-07T06:27:59.966Z,52
2022-08-07T06:28:06.625Z,52
2022-08-07T06:28:36.386Z,52
2022-08-07T06:28:54.433Z,52
2022-08-07T06:29:26.836Z,52
2022-08-07T06:29:43.026Z,52
2022-08-07T06:30:31.820Z,52
2022-08-07T06:30:50.640Z,53
2022-08-07T06:31:18.345Z,52
2022-08-07T06:31:50.726Z,52
2022-08-07T06:32:23.409Z,52
2022-08-07T06:32:42.077Z,52
2022-08-07T06:33:16.087Z,52
2022-08-07T06:33:36.185Z,52
2022-08-07T06:33:58.508Z,52
2022-08-07T06:34:30.629Z,52
2022-08-07T06:35:02.510Z,52
2022-08-07T06:35:45.409Z,51
2022-08-07T06:36:14.003Z,52
2022-08-07T06:36:35.777Z,52
2022-08-07T06:36:54.429Z,52
2022-08-07T06:37:26.667Z,51
2022-08-07T06:38:00.214Z,51
2022-08-07T06:38:31.505Z,51
2022-08-07T06:40:17.139Z,52
2022-08-07T06:40:24.811Z,51
2022-08-07T06:40:46.085Z,51
2022-08-07T06:41:12.966Z,51
2022-08-07T06:42:00.716Z,51
2022-08-07T06:42:14.538Z,51
2022-08-07T06:42:35.514Z,51
2022-08-07T06:43:03.313Z,52
2022-08-07T06:43:39.263Z,51
2022-08-07T06:44:06.710Z,51
2022-08-07T06:44:36.708Z,51
2022-08-07T06:44:54.404Z,50
2022-08-07T06:45:27.342Z,50
2022-08-07T06:46:00.921Z,49
2022-08-07T06:46:35.350Z,49
2022-08-07T06:47:12.371Z,50
2022-08-07T06:47:48.357Z,50
2022-08-07T06:48:08.979Z,50
2022-08-07T06:48:34.967Z,50
2022-08-07T06:48:54.420Z,50
2022-08-07T06:49:26.843Z,51
2022-08-07T06:49:51.209Z,51
2022-08-07T06:50:14.450Z,51
2022-08-07T06:50:35.945Z,51
2022-08-07T06:51:07.848Z,51
2022-08-07T06:51:34.410Z,51
2022-08-07T06:52:07.492Z,51
2022-08-07T06:52:36.051Z,51
2022-08-07T06:52:55.891Z,51
2022-08-07T06:55:29.255Z,51
2022-08-07T06:56:01.505Z,50
2022-08-07T06:56:22.513Z,50
2022-08-07T06:56:54.390Z,49
2022-08-07T06:57:43.706Z,50
2022-08-07T06:57:59.505Z,50
2022-08-07T06:58:32.071Z,50
2022-08-07T07:00:14.349Z,50
2022-08-07T07:00:23.525Z,51
2022-08-07T07:00:55.438Z,50
2022-08-07T07:01:41.834Z,51
2022-08-07T07:01:58.510Z,50
2022-08-07T07:02:54.344Z,50
2022-08-07T07:03:08.765Z,50
2022-08-07T07:03:48.805Z,50
2022-08-07T07:04:32.769Z,50
2022-08-07T07:04:36.787Z,51
2022-08-07T07:04:56.701Z,50
2022-08-07T07:06:04.751Z,49
2022-08-07T07:06:14.513Z,50
2022-08-07T07:06:57.308Z,50
2022-08-07T07:07:19.388Z,50
2022-08-07T07:08:09.927Z,49
2022-08-07T07:08:39.816Z,49
2022-08-07T07:08:54.405Z,50
2022-08-07T07:09:31.259Z,49
2022-08-07T07:09:43.006Z,49
2022-08-07T07:10:14.399Z,49
2022-08-07T07:10:36.699Z,49
2022-08-07T07:11:14.025Z,49
2022-08-07T07:12:27.823Z,49
2022-08-07T07:12:54.395Z,49
2022-08-07T07:13:43.519Z,49
2022-08-07T07:14:16.467Z,49
2022-08-07T07:14:35.515Z,50
2022-08-07T07:15:03.329Z,50
2022-08-07T07:15:36.065Z,50
2022-08-07T07:16:07.047Z,49
2022-08-07T07:16:44.243Z,49
2022-08-07T07:16:59.565Z,49
2022-08-07T07:17:28.896Z,49
2022-08-07T07:17:45.336Z,49
2022-08-07T07:18:14.370Z,49
2022-08-07T07:18:47.762Z,49
2022-08-07T07:19:04.279Z,49
2022-08-07T07:20:06.858Z,50
2022-08-07T07:20:36.250Z,50
2022-08-07T07:20:54.356Z,48
2022-08-07T07:21:27.289Z,47
2022-08-07T07:22:36.073Z,48
2022-08-07T07:24:08.277Z,47
2022-08-07T07:24:23.826Z,48
2022-08-07T07:25:02.412Z,48
2022-08-07T07:26:34.426Z,48
2022-08-07T07:26:49.668Z,47
2022-08-07T07:27:18.494Z,47
2022-08-07T07:27:58.431Z,47
2022-08-07T07:28:42.738Z,48
2022-08-07T07:30:09.335Z,48
2022-08-07T07:30:37.803Z,49
2022-08-07T07:31:03.591Z,49
2022-08-07T07:31:40.093Z,50
2022-08-07T07:32:06.479Z,48
2022-08-07T07:32:36.271Z,48
2022-08-07T07:32:54.410Z,48
2022-08-07T07:33:26.693Z,50
2022-08-07T07:33:43.968Z,49
2022-08-07T07:34:15.500Z,48
2022-08-07T07:34:35.301Z,48
2022-08-07T07:35:03.907Z,47